PWSweather.com
Personal Weather Stations
Station Observations
KNHRINDG3
Converse Meadow Pond, Rindge, NH 03461

Converse Meadow PondRindge, NH 03461

Lat: 42.74, Lon: -71.98

Elevation: 1060

Station Type: Davis Vantage Pro 2

http://nhwoodworker.com/weather/index.php

High Low Average
Temperature 47.5°F8.6°F 43.4°F6.3°F 45.5°F7.5°F
Dew Point 47.3°F8.5°F 42.2°F5.7°F 44.2°F6.8°F
Winds 3.0 mph WNW4.8 mph WNW Calm Calm 0.9 mph 1.4 mph
Wind Gusts 9.0 mph14.5 mph -- 2.8 mph4.5 mph
Humidity 100% 89% 95%
Pressure 29.75 in1007.50 in 29.68 in1005.10 in -
Precipitation 0.14 in3.60 in - -
Hour Temp Dew Point Humidity Winds Wind Gusts Pressure Precip Precip Rate Daily Precip Total
12:00 AM 47.3°F8.5°C 47.3°F8.5°C 100% Calm Calm 1.0 mph1.6 kmh 29.70 in1005.8 mb 0.00 in0.0 mm 0.00 in/hr0.0 mm/hr 0.00 in0.0 mm
12:10 AM 47.3°F8.5°C 47.3°F8.5°C 100% Calm Calm 2.0 mph3.2 kmh 29.69 in1005.4 mb 0.00 in0.0 mm 0.00 in/hr0.0 mm/hr 0.00 in0.0 mm
12:20 AM 47.3°F8.5°C 47.3°F8.5°C 100% 2.0 mph NE3.2 kmh NE 3.0 mph4.8 kmh 29.69 in1005.4 mb 0.00 in0.0 mm 0.00 in/hr0.0 mm/hr 0.00 in0.0 mm
12:30 AM 47.3°F8.5°C 47.0°F8.3°C 99% Calm Calm 3.0 mph4.8 kmh 29.69 in1005.4 mb 0.00 in0.0 mm 0.00 in/hr0.0 mm/hr 0.00 in0.0 mm
12:40 AM 47.4°F8.6°C 47.1°F8.4°C 99% Calm Calm 2.0 mph3.2 kmh 29.69 in1005.4 mb 0.00 in0.0 mm 0.00 in/hr0.0 mm/hr 0.00 in0.0 mm
12:50 AM 47.3°F8.5°C 47.1°F8.4°C 99% 1.0 mph W1.6 kmh W 5.0 mph8.0 kmh 29.70 in1005.8 mb 0.00 in0.0 mm 0.00 in/hr0.0 mm/hr 0.00 in0.0 mm
01:00 AM 47.3°F8.5°C 47.1°F8.4°C 99% 1.0 mph WNW1.6 kmh WNW 3.0 mph4.8 kmh 29.70 in1005.8 mb 0.00 in0.0 mm 0.00 in/hr0.0 mm/hr 0.00 in0.0 mm
01:10 AM 47.3°F8.5°C 47.0°F8.3°C 99% Calm Calm 1.0 mph1.6 kmh 29.70 in1005.8 mb 0.00 in0.0 mm 0.00 in/hr0.0 mm/hr 0.00 in0.0 mm
01:20 AM 47.4°F8.6°C 47.1°F8.4°C 99% Calm Calm 1.0 mph1.6 kmh 29.70 in1005.8 mb 0.00 in0.0 mm 0.00 in/hr0.0 mm/hr 0.00 in0.0 mm
01:30 AM 47.3°F8.5°C 47.1°F8.4°C 99% Calm Calm 1.0 mph1.6 kmh 29.70 in1005.8 mb 0.01 in0.3 mm 0.06 in/hr1.5 mm/hr 0.01 in0.3 mm
01:40 AM 47.4°F8.6°C 47.1°F8.4°C 99% Calm Calm 2.0 mph3.2 kmh 29.70 in1005.8 mb 0.00 in0.0 mm 0.00 in/hr0.0 mm/hr 0.01 in0.3 mm
01:50 AM 47.4°F8.6°C 47.1°F8.4°C 99% 2.0 mph NW3.2 kmh NW 2.0 mph3.2 kmh 29.70 in1005.8 mb 0.00 in0.0 mm 0.00 in/hr0.0 mm/hr 0.01 in0.3 mm
02:00 AM 47.5°F8.6°C 47.2°F8.4°C 99% Calm Calm 1.0 mph1.6 kmh 29.69 in1005.4 mb 0.00 in0.0 mm 0.00 in/hr0.0 mm/hr 0.01 in0.3 mm
02:10 AM 47.5°F8.6°C 47.2°F8.4°C 99% 1.0 mph NNE1.6 kmh NNE 3.0 mph4.8 kmh 29.70 in1005.8 mb 0.00 in0.0 mm 0.00 in/hr0.0 mm/hr 0.01 in0.3 mm
02:20 AM 47.4°F8.6°C 47.1°F8.4°C 99% Calm Calm 1.0 mph1.6 kmh 29.70 in1005.8 mb 0.00 in0.0 mm 0.00 in/hr0.0 mm/hr 0.01 in0.3 mm
02:30 AM 47.2°F8.4°C 46.9°F8.3°C 99% Calm Calm 1.0 mph1.6 kmh 29.70 in1005.8 mb 0.00 in0.0 mm 0.00 in/hr0.0 mm/hr 0.01 in0.3 mm
02:40 AM 46.9°F8.3°C 46.6°F8.1°C 99% 1.0 mph N1.6 kmh N 2.0 mph3.2 kmh 29.69 in1005.4 mb 0.00 in0.0 mm 0.00 in/hr0.0 mm/hr 0.01 in0.3 mm
02:50 AM 46.7°F8.2°C 46.4°F8.0°C 99% Calm Calm 3.0 mph4.8 kmh 29.69 in1005.4 mb 0.00 in0.0 mm 0.00 in/hr0.0 mm/hr 0.01 in0.3 mm
03:00 AM 46.4°F8.0°C 46.1°F7.8°C 99% 2.0 mph NW3.2 kmh NW 3.0 mph4.8 kmh 29.69 in1005.4 mb 0.00 in0.0 mm 0.00 in/hr0.0 mm/hr 0.01 in0.3 mm
03:10 AM 46.2°F7.9°C 45.9°F7.7°C 99% Calm Calm 1.0 mph1.6 kmh 29.68 in1005.1 mb 0.00 in0.0 mm 0.00 in/hr0.0 mm/hr 0.01 in0.3 mm
03:20 AM 46.1°F7.8°C 45.8°F7.7°C 99% Calm Calm 1.0 mph1.6 kmh 29.68 in1005.1 mb 0.00 in0.0 mm 0.00 in/hr0.0 mm/hr 0.01 in0.3 mm
03:30 AM 46.1°F7.8°C 45.8°F7.7°C 99% Calm Calm 2.0 mph3.2 kmh 29.68 in1005.1 mb 0.00 in0.0 mm 0.00 in/hr0.0 mm/hr 0.01 in0.3 mm
03:40 AM 46.0°F7.8°C 45.7°F7.6°C 99% Calm Calm 1.0 mph1.6 kmh 29.68 in1005.1 mb 0.00 in0.0 mm 0.00 in/hr0.0 mm/hr 0.01 in0.3 mm
03:50 AM 46.0°F7.8°C 45.7°F7.6°C 99% Calm Calm 1.0 mph1.6 kmh 29.69 in1005.4 mb 0.00 in0.0 mm 0.00 in/hr0.0 mm/hr 0.01 in0.3 mm
04:00 AM 45.9°F7.7°C 45.7°F7.6°C 99% Calm Calm -- 29.69 in1005.4 mb 0.01 in0.3 mm 0.01 in/hr0.3 mm/hr 0.02 in0.5 mm
04:10 AM 45.9°F7.7°C 45.6°F7.6°C 99% Calm Calm 1.0 mph1.6 kmh 29.69 in1005.4 mb 0.00 in0.0 mm 0.00 in/hr0.0 mm/hr 0.02 in0.5 mm
04:20 AM 45.9°F7.7°C 45.6°F7.6°C 99% Calm Calm 2.0 mph3.2 kmh 29.69 in1005.4 mb 0.01 in0.3 mm 0.06 in/hr1.5 mm/hr 0.03 in0.8 mm
04:30 AM 45.8°F7.7°C 45.5°F7.5°C 99% Calm Calm -- 29.69 in1005.4 mb 0.00 in0.0 mm 0.00 in/hr0.0 mm/hr 0.03 in0.8 mm
04:40 AM 45.7°F7.6°C 45.4°F7.4°C 99% 1.0 mph N1.6 kmh N 3.0 mph4.8 kmh 29.69 in1005.4 mb 0.01 in0.3 mm 0.06 in/hr1.5 mm/hr 0.04 in1.0 mm
04:50 AM 45.5°F7.5°C 45.2°F7.3°C 99% 2.0 mph NW3.2 kmh NW 3.0 mph4.8 kmh 29.69 in1005.4 mb 0.00 in0.0 mm 0.00 in/hr0.0 mm/hr 0.04 in1.0 mm
05:00 AM 45.3°F7.4°C 45.0°F7.2°C 99% Calm Calm 1.0 mph1.6 kmh 29.69 in1005.4 mb 0.01 in0.3 mm 0.01 in/hr0.3 mm/hr 0.05 in1.3 mm
05:10 AM 45.3°F7.4°C 45.0°F7.2°C 99% Calm Calm 1.0 mph1.6 kmh 29.69 in1005.4 mb 0.01 in0.3 mm 0.06 in/hr1.5 mm/hr 0.06 in1.5 mm
05:20 AM 45.2°F7.3°C 44.9°F7.2°C 99% Calm Calm 2.0 mph3.2 kmh 29.69 in1005.4 mb 0.01 in0.3 mm 0.06 in/hr1.5 mm/hr 0.07 in1.8 mm
05:30 AM 45.1°F7.3°C 44.8°F7.1°C 99% 1.0 mph NNW1.6 kmh NNW 6.0 mph9.7 kmh 29.69 in1005.4 mb 0.00 in0.0 mm 0.00 in/hr0.0 mm/hr 0.07 in1.8 mm
05:40 AM 45.1°F7.3°C 44.8°F7.1°C 99% 1.0 mph WNW1.6 kmh WNW 5.0 mph8.0 kmh 29.69 in1005.4 mb 0.01 in0.3 mm 0.06 in/hr1.5 mm/hr 0.08 in2.0 mm
05:50 AM 45.0°F7.2°C 44.7°F7.1°C 99% 1.0 mph NNW1.6 kmh NNW 2.0 mph3.2 kmh 29.70 in1005.8 mb 0.00 in0.0 mm 0.00 in/hr0.0 mm/hr 0.08 in2.0 mm
06:00 AM 44.9°F7.2°C 44.6°F7.0°C 99% Calm Calm -- 29.70 in1005.8 mb 0.01 in0.3 mm 0.01 in/hr0.3 mm/hr 0.09 in2.3 mm
06:10 AM 44.8°F7.1°C 44.5°F6.9°C 99% Calm Calm 2.0 mph3.2 kmh 29.70 in1005.8 mb 0.01 in0.3 mm 0.06 in/hr1.5 mm/hr 0.10 in2.5 mm
06:20 AM 44.7°F7.1°C 44.4°F6.9°C 99% 1.0 mph N1.6 kmh N 3.0 mph4.8 kmh 29.70 in1005.8 mb 0.01 in0.3 mm 0.06 in/hr1.5 mm/hr 0.11 in2.8 mm
06:30 AM 44.6°F7.0°C 44.3°F6.8°C 99% 1.0 mph NE1.6 kmh NE 3.0 mph4.8 kmh 29.71 in1006.1 mb 0.00 in0.0 mm 0.00 in/hr0.0 mm/hr 0.11 in2.8 mm
06:40 AM 44.6°F7.0°C 44.3°F6.8°C 99% Calm Calm -- 29.70 in1005.8 mb 0.01 in0.3 mm 0.06 in/hr1.5 mm/hr 0.12 in3.0 mm
06:50 AM 44.6°F7.0°C 44.3°F6.8°C 99% Calm Calm -- 29.70 in1005.8 mb 0.01 in0.3 mm 0.06 in/hr1.5 mm/hr 0.13 in3.3 mm
07:00 AM 44.5°F6.9°C 44.2°F6.8°C 99% Calm Calm -- 29.70 in1005.8 mb 0.01 in0.3 mm 0.01 in/hr0.3 mm/hr 0.14 in3.6 mm
07:10 AM 44.5°F6.9°C 44.2°F6.8°C 99% Calm Calm -- 29.70 in1005.8 mb 0.00 in0.0 mm 0.00 in/hr0.0 mm/hr 0.14 in3.6 mm
07:20 AM 44.5°F6.9°C 44.2°F6.8°C 99% Calm Calm 1.0 mph1.6 kmh 29.71 in1006.1 mb 0.00 in0.0 mm 0.00 in/hr0.0 mm/hr 0.14 in3.6 mm
07:30 AM 44.3°F6.8°C 44.1°F6.7°C 99% 1.0 mph NNE1.6 kmh NNE 3.0 mph4.8 kmh 29.71 in1006.1 mb 0.00 in0.0 mm 0.00 in/hr0.0 mm/hr 0.14 in3.6 mm
07:40 AM 44.2°F6.8°C 43.9°F6.6°C 99% 1.0 mph WNW1.6 kmh WNW 1.0 mph1.6 kmh 29.71 in1006.1 mb 0.00 in0.0 mm 0.00 in/hr0.0 mm/hr 0.14 in3.6 mm
07:50 AM 44.1°F6.7°C 43.8°F6.6°C 99% 2.0 mph N3.2 kmh N 3.0 mph4.8 kmh 29.71 in1006.1 mb 0.00 in0.0 mm 0.00 in/hr0.0 mm/hr 0.14 in3.6 mm
08:00 AM 43.9°F6.6°C 43.6°F6.4°C 99% 1.0 mph NW1.6 kmh NW 5.0 mph8.0 kmh 29.71 in1006.1 mb 0.00 in0.0 mm 0.00 in/hr0.0 mm/hr 0.14 in3.6 mm
08:10 AM 43.8°F6.6°C 43.5°F6.4°C 99% 2.0 mph W3.2 kmh W 8.0 mph12.9 kmh 29.71 in1006.1 mb 0.00 in0.0 mm 0.00 in/hr0.0 mm/hr 0.14 in3.6 mm
08:20 AM 43.6°F6.4°C 43.4°F6.3°C 99% 1.0 mph NE1.6 kmh NE 3.0 mph4.8 kmh 29.71 in1006.1 mb 0.00 in0.0 mm 0.00 in/hr0.0 mm/hr 0.14 in3.6 mm
08:30 AM 43.5°F6.4°C 43.2°F6.2°C 99% 1.0 mph NNW1.6 kmh NNW 3.0 mph4.8 kmh 29.71 in1006.1 mb 0.00 in0.0 mm 0.00 in/hr0.0 mm/hr 0.14 in3.6 mm
08:40 AM 43.4°F6.3°C 43.1°F6.2°C 99% Calm Calm 1.0 mph1.6 kmh 29.71 in1006.1 mb 0.00 in0.0 mm 0.00 in/hr0.0 mm/hr 0.14 in3.6 mm
08:50 AM 43.5°F6.4°C 43.2°F6.2°C 99% 3.0 mph NNW4.8 kmh NNW 6.0 mph9.7 kmh 29.71 in1006.1 mb 0.00 in0.0 mm 0.00 in/hr0.0 mm/hr 0.14 in3.6 mm
09:00 AM 43.7°F6.5°C 43.4°F6.3°C 99% 2.0 mph WSW3.2 kmh WSW 5.0 mph8.0 kmh 29.72 in1006.4 mb 0.00 in0.0 mm 0.00 in/hr0.0 mm/hr 0.14 in3.6 mm
09:10 AM 43.8°F6.6°C 43.5°F6.4°C 99% 1.0 mph NNW1.6 kmh NNW 1.0 mph1.6 kmh 29.72 in1006.4 mb 0.00 in0.0 mm 0.00 in/hr0.0 mm/hr 0.14 in3.6 mm
09:20 AM 43.8°F6.6°C 43.5°F6.4°C 99% 3.0 mph NNW4.8 kmh NNW 7.0 mph11.3 kmh 29.72 in1006.4 mb 0.00 in0.0 mm 0.00 in/hr0.0 mm/hr 0.14 in3.6 mm
09:30 AM 44.0°F6.7°C 43.7°F6.5°C 99% 1.0 mph NNE1.6 kmh NNE 3.0 mph4.8 kmh 29.72 in1006.4 mb 0.00 in0.0 mm 0.00 in/hr0.0 mm/hr 0.14 in3.6 mm
09:40 AM 44.3°F6.8°C 44.0°F6.7°C 99% Calm Calm 1.0 mph1.6 kmh 29.72 in1006.4 mb 0.00 in0.0 mm 0.00 in/hr0.0 mm/hr 0.14 in3.6 mm
09:50 AM 44.4°F6.9°C 44.1°F6.7°C 99% Calm Calm 1.0 mph1.6 kmh 29.73 in1006.8 mb 0.00 in0.0 mm 0.00 in/hr0.0 mm/hr 0.14 in3.6 mm
10:00 AM 44.4°F6.9°C 43.9°F6.6°C 98% 1.0 mph NE1.6 kmh NE 2.0 mph3.2 kmh 29.73 in1006.8 mb 0.00 in0.0 mm 0.00 in/hr0.0 mm/hr 0.14 in3.6 mm
10:10 AM 44.3°F6.8°C 43.8°F6.6°C 98% 1.0 mph NE1.6 kmh NE 2.0 mph3.2 kmh 29.73 in1006.8 mb 0.00 in0.0 mm 0.00 in/hr0.0 mm/hr 0.14 in3.6 mm
10:20 AM 44.3°F6.8°C 43.8°F6.6°C 98% 1.0 mph NW1.6 kmh NW 2.0 mph3.2 kmh 29.73 in1006.8 mb 0.00 in0.0 mm 0.00 in/hr0.0 mm/hr 0.14 in3.6 mm
10:30 AM 44.2°F6.8°C 43.4°F6.3°C 97% 3.0 mph NNE4.8 kmh NNE 8.0 mph12.9 kmh 29.73 in1006.8 mb 0.00 in0.0 mm 0.00 in/hr0.0 mm/hr 0.14 in3.6 mm
10:40 AM 44.1°F6.7°C 43.3°F6.3°C 97% 2.0 mph NE3.2 kmh NE 5.0 mph8.0 kmh 29.73 in1006.8 mb 0.00 in0.0 mm 0.00 in/hr0.0 mm/hr 0.14 in3.6 mm
10:50 AM 44.2°F6.8°C 43.4°F6.3°C 97% 1.0 mph N1.6 kmh N 1.0 mph1.6 kmh 29.72 in1006.4 mb 0.00 in0.0 mm 0.00 in/hr0.0 mm/hr 0.14 in3.6 mm
11:00 AM 44.3°F6.8°C 43.5°F6.4°C 97% 1.0 mph N1.6 kmh N 3.0 mph4.8 kmh 29.72 in1006.4 mb 0.00 in0.0 mm 0.00 in/hr0.0 mm/hr 0.14 in3.6 mm
11:10 AM 44.5°F6.9°C 43.7°F6.5°C 97% 1.0 mph NW1.6 kmh NW 3.0 mph4.8 kmh 29.73 in1006.8 mb 0.00 in0.0 mm 0.00 in/hr0.0 mm/hr 0.14 in3.6 mm
11:20 AM 44.8°F7.1°C 44.0°F6.7°C 97% Calm Calm -- 29.72 in1006.4 mb 0.00 in0.0 mm 0.00 in/hr0.0 mm/hr 0.14 in3.6 mm
11:30 AM 44.9°F7.2°C 44.1°F6.7°C 97% Calm Calm 1.0 mph1.6 kmh 29.73 in1006.8 mb 0.00 in0.0 mm 0.00 in/hr0.0 mm/hr 0.14 in3.6 mm
11:40 AM 44.6°F7.0°C 43.5°F6.4°C 96% 1.0 mph NW1.6 kmh NW 3.0 mph4.8 kmh 29.72 in1006.4 mb 0.00 in0.0 mm 0.00 in/hr0.0 mm/hr 0.14 in3.6 mm
11:50 AM 44.7°F7.1°C 43.9°F6.6°C 97% Calm Calm 2.0 mph3.2 kmh 29.72 in1006.4 mb 0.00 in0.0 mm 0.00 in/hr0.0 mm/hr 0.14 in3.6 mm
12:00 PM 44.9°F7.2°C 43.8°F6.6°C 96% 1.0 mph WSW1.6 kmh WSW 2.0 mph3.2 kmh 29.72 in1006.4 mb 0.00 in0.0 mm 0.00 in/hr0.0 mm/hr 0.14 in3.6 mm
12:10 PM 45.2°F7.3°C 44.4°F6.9°C 97% Calm Calm 2.0 mph3.2 kmh 29.72 in1006.4 mb 0.00 in0.0 mm 0.00 in/hr0.0 mm/hr 0.14 in3.6 mm
12:20 PM 45.4°F7.4°C 44.6°F7.0°C 97% 1.0 mph E1.6 kmh E 2.0 mph3.2 kmh 29.71 in1006.1 mb 0.00 in0.0 mm 0.00 in/hr0.0 mm/hr 0.14 in3.6 mm
12:30 PM 45.9°F7.7°C 44.8°F7.1°C 96% 2.0 mph NNW3.2 kmh NNW 7.0 mph11.3 kmh 29.71 in1006.1 mb 0.00 in0.0 mm 0.00 in/hr0.0 mm/hr 0.14 in3.6 mm
12:40 PM 45.8°F7.7°C 44.7°F7.1°C 96% Calm Calm 1.0 mph1.6 kmh 29.71 in1006.1 mb 0.00 in0.0 mm 0.00 in/hr0.0 mm/hr 0.14 in3.6 mm
12:50 PM 46.0°F7.8°C 44.9°F7.2°C 96% 1.0 mph NE1.6 kmh NE 2.0 mph3.2 kmh 29.71 in1006.1 mb 0.00 in0.0 mm 0.00 in/hr0.0 mm/hr 0.14 in3.6 mm
01:00 PM 46.1°F7.8°C 44.8°F7.1°C 95% 3.0 mph NW4.8 kmh NW 6.0 mph9.7 kmh 29.70 in1005.8 mb 0.00 in0.0 mm 0.00 in/hr0.0 mm/hr 0.14 in3.6 mm
01:10 PM 46.2°F7.9°C 45.1°F7.3°C 96% 1.0 mph NNE1.6 kmh NNE 2.0 mph3.2 kmh 29.70 in1005.8 mb 0.00 in0.0 mm 0.00 in/hr0.0 mm/hr 0.14 in3.6 mm
01:20 PM 46.2°F7.9°C 44.8°F7.1°C 95% Calm Calm 2.0 mph3.2 kmh 29.71 in1006.1 mb 0.00 in0.0 mm 0.00 in/hr0.0 mm/hr 0.14 in3.6 mm
01:30 PM 46.0°F7.8°C 44.6°F7.0°C 95% Calm Calm 3.0 mph4.8 kmh 29.71 in1006.1 mb 0.00 in0.0 mm 0.00 in/hr0.0 mm/hr 0.14 in3.6 mm
01:40 PM 46.1°F7.8°C 44.5°F6.9°C 94% 2.0 mph WNW3.2 kmh WNW 9.0 mph14.5 kmh 29.70 in1005.8 mb 0.00 in0.0 mm 0.00 in/hr0.0 mm/hr 0.14 in3.6 mm
01:50 PM 46.2°F7.9°C 44.6°F7.0°C 94% Calm Calm -- 29.70 in1005.8 mb 0.00 in0.0 mm 0.00 in/hr0.0 mm/hr 0.14 in3.6 mm
02:00 PM 46.5°F8.1°C 44.9°F7.2°C 94% 2.0 mph NNW3.2 kmh NNW 5.0 mph8.0 kmh 29.70 in1005.8 mb 0.00 in0.0 mm 0.00 in/hr0.0 mm/hr 0.14 in3.6 mm
02:10 PM 46.4°F8.0°C 44.8°F7.1°C 94% Calm Calm -- 29.70 in1005.8 mb 0.00 in0.0 mm 0.00 in/hr0.0 mm/hr 0.14 in3.6 mm
02:20 PM 46.5°F8.1°C 44.8°F7.1°C 94% Calm Calm 1.0 mph1.6 kmh 29.70 in1005.8 mb 0.00 in0.0 mm 0.00 in/hr0.0 mm/hr 0.14 in3.6 mm
02:30 PM 46.4°F8.0°C 44.5°F6.9°C 93% 2.0 mph W3.2 kmh W 3.0 mph4.8 kmh 29.70 in1005.8 mb 0.00 in0.0 mm 0.00 in/hr0.0 mm/hr 0.14 in3.6 mm
02:40 PM 46.2°F7.9°C 44.3°F6.8°C 93% 1.0 mph N1.6 kmh N 2.0 mph3.2 kmh 29.70 in1005.8 mb 0.00 in0.0 mm 0.00 in/hr0.0 mm/hr 0.14 in3.6 mm
02:50 PM 46.2°F7.9°C 44.3°F6.8°C 93% Calm Calm 3.0 mph4.8 kmh 29.69 in1005.4 mb 0.00 in0.0 mm 0.00 in/hr0.0 mm/hr 0.14 in3.6 mm
03:00 PM 46.3°F7.9°C 44.1°F6.7°C 92% 1.0 mph N1.6 kmh N 3.0 mph4.8 kmh 29.69 in1005.4 mb 0.00 in0.0 mm 0.00 in/hr0.0 mm/hr 0.14 in3.6 mm
03:10 PM 46.5°F8.1°C 44.3°F6.8°C 92% 2.0 mph SSW3.2 kmh SSW 3.0 mph4.8 kmh 29.69 in1005.4 mb 0.00 in0.0 mm 0.00 in/hr0.0 mm/hr 0.14 in3.6 mm
03:20 PM 47.1°F8.4°C 44.9°F7.2°C 92% 1.0 mph NW1.6 kmh NW 6.0 mph9.7 kmh 29.70 in1005.8 mb 0.00 in0.0 mm 0.00 in/hr0.0 mm/hr 0.14 in3.6 mm
03:30 PM 46.8°F8.2°C 44.6°F7.0°C 92% 2.0 mph SW3.2 kmh SW 3.0 mph4.8 kmh 29.70 in1005.8 mb 0.00 in0.0 mm 0.00 in/hr0.0 mm/hr 0.14 in3.6 mm
03:40 PM 46.7°F8.2°C 44.2°F6.8°C 91% Calm Calm 3.0 mph4.8 kmh 29.70 in1005.8 mb 0.00 in0.0 mm 0.00 in/hr0.0 mm/hr 0.14 in3.6 mm
03:50 PM 46.5°F8.1°C 44.0°F6.7°C 91% 2.0 mph NNE3.2 kmh NNE 3.0 mph4.8 kmh 29.70 in1005.8 mb 0.00 in0.0 mm 0.00 in/hr0.0 mm/hr 0.14 in3.6 mm
04:00 PM 46.3°F7.9°C 43.8°F6.6°C 91% 1.0 mph N1.6 kmh N 1.0 mph1.6 kmh 29.69 in1005.4 mb 0.00 in0.0 mm 0.00 in/hr0.0 mm/hr 0.14 in3.6 mm
04:10 PM 46.3°F7.9°C 44.1°F6.7°C 92% 1.0 mph NNE1.6 kmh NNE 3.0 mph4.8 kmh 29.69 in1005.4 mb 0.00 in0.0 mm 0.00 in/hr0.0 mm/hr 0.14 in3.6 mm
04:20 PM 46.2°F7.9°C 43.7°F6.5°C 91% 1.0 mph NNW1.6 kmh NNW 3.0 mph4.8 kmh 29.70 in1005.8 mb 0.00 in0.0 mm 0.00 in/hr0.0 mm/hr 0.14 in3.6 mm
04:30 PM 46.0°F7.8°C 43.5°F6.4°C 91% Calm Calm 1.0 mph1.6 kmh 29.70 in1005.8 mb 0.00 in0.0 mm 0.00 in/hr0.0 mm/hr 0.14 in3.6 mm
04:40 PM 45.9°F7.7°C 43.4°F6.3°C 91% 2.0 mph N3.2 kmh N 5.0 mph8.0 kmh 29.70 in1005.8 mb 0.00 in0.0 mm 0.00 in/hr0.0 mm/hr 0.14 in3.6 mm
04:50 PM 45.8°F7.7°C 43.3°F6.3°C 91% 2.0 mph N3.2 kmh N 2.0 mph3.2 kmh 29.71 in1006.1 mb 0.00 in0.0 mm 0.00 in/hr0.0 mm/hr 0.14 in3.6 mm
05:00 PM 45.7°F7.6°C 43.2°F6.2°C 91% 2.0 mph WNW3.2 kmh WNW 6.0 mph9.7 kmh 29.71 in1006.1 mb 0.00 in0.0 mm 0.00 in/hr0.0 mm/hr 0.14 in3.6 mm
05:10 PM 45.6°F7.6°C 43.1°F6.2°C 91% Calm Calm 1.0 mph1.6 kmh 29.71 in1006.1 mb 0.00 in0.0 mm 0.00 in/hr0.0 mm/hr 0.14 in3.6 mm
05:20 PM 45.6°F7.6°C 43.4°F6.3°C 92% 2.0 mph S3.2 kmh S 6.0 mph9.7 kmh 29.71 in1006.1 mb 0.00 in0.0 mm 0.00 in/hr0.0 mm/hr 0.14 in3.6 mm
05:30 PM 45.5°F7.5°C 42.7°F5.9°C 90% 1.0 mph N1.6 kmh N 5.0 mph8.0 kmh 29.71 in1006.1 mb 0.00 in0.0 mm 0.00 in/hr0.0 mm/hr 0.14 in3.6 mm
05:40 PM 45.4°F7.4°C 42.9°F6.1°C 91% 2.0 mph WSW3.2 kmh WSW 5.0 mph8.0 kmh 29.71 in1006.1 mb 0.00 in0.0 mm 0.00 in/hr0.0 mm/hr 0.14 in3.6 mm
05:50 PM 45.3°F7.4°C 43.1°F6.2°C 92% 1.0 mph WSW1.6 kmh WSW 2.0 mph3.2 kmh 29.71 in1006.1 mb 0.00 in0.0 mm 0.00 in/hr0.0 mm/hr 0.14 in3.6 mm
06:00 PM 45.2°F7.3°C 43.0°F6.1°C 92% 1.0 mph SSW1.6 kmh SSW 2.0 mph3.2 kmh 29.71 in1006.1 mb 0.00 in0.0 mm 0.00 in/hr0.0 mm/hr 0.14 in3.6 mm
06:10 PM 45.2°F7.3°C 42.7°F5.9°C 91% 1.0 mph NE1.6 kmh NE 3.0 mph4.8 kmh 29.71 in1006.1 mb 0.00 in0.0 mm 0.00 in/hr0.0 mm/hr 0.14 in3.6 mm
06:20 PM 45.2°F7.3°C 43.0°F6.1°C 92% 1.0 mph NE1.6 kmh NE 2.0 mph3.2 kmh 29.71 in1006.1 mb 0.00 in0.0 mm 0.00 in/hr0.0 mm/hr 0.14 in3.6 mm
06:30 PM 45.0°F7.2°C 42.8°F6.0°C 92% 1.0 mph SSW1.6 kmh SSW 1.0 mph1.6 kmh 29.72 in1006.4 mb 0.00 in0.0 mm 0.00 in/hr0.0 mm/hr 0.14 in3.6 mm
06:40 PM 44.9°F7.2°C 43.0°F6.1°C 93% 1.0 mph N1.6 kmh N 3.0 mph4.8 kmh 29.72 in1006.4 mb 0.00 in0.0 mm 0.00 in/hr0.0 mm/hr 0.14 in3.6 mm
06:50 PM 44.8°F7.1°C 42.9°F6.1°C 93% 1.0 mph NW1.6 kmh NW 2.0 mph3.2 kmh 29.72 in1006.4 mb 0.00 in0.0 mm 0.00 in/hr0.0 mm/hr 0.14 in3.6 mm
07:00 PM 44.9°F7.2°C 43.0°F6.1°C 93% Calm Calm 3.0 mph4.8 kmh 29.73 in1006.8 mb 0.00 in0.0 mm 0.00 in/hr0.0 mm/hr 0.14 in3.6 mm
07:10 PM 44.9°F7.2°C 42.7°F5.9°C 92% 2.0 mph NNE3.2 kmh NNE 5.0 mph8.0 kmh 29.73 in1006.8 mb 0.00 in0.0 mm 0.00 in/hr0.0 mm/hr 0.14 in3.6 mm
07:20 PM 45.1°F7.3°C 42.9°F6.1°C 92% 1.0 mph S1.6 kmh S 2.0 mph3.2 kmh 29.73 in1006.8 mb 0.00 in0.0 mm 0.00 in/hr0.0 mm/hr 0.14 in3.6 mm
07:30 PM 45.2°F7.3°C 43.0°F6.1°C 92% 1.0 mph WNW1.6 kmh WNW 2.0 mph3.2 kmh 29.73 in1006.8 mb 0.00 in0.0 mm 0.00 in/hr0.0 mm/hr 0.14 in3.6 mm
07:40 PM 45.2°F7.3°C 43.0°F6.1°C 92% 1.0 mph NW1.6 kmh NW 3.0 mph4.8 kmh 29.73 in1006.8 mb 0.00 in0.0 mm 0.00 in/hr0.0 mm/hr 0.14 in3.6 mm
07:50 PM 45.2°F7.3°C 42.7°F5.9°C 91% 2.0 mph NW3.2 kmh NW 5.0 mph8.0 kmh 29.73 in1006.8 mb 0.00 in0.0 mm 0.00 in/hr0.0 mm/hr 0.14 in3.6 mm
08:00 PM 45.3°F7.4°C 42.8°F6.0°C 91% 1.0 mph NE1.6 kmh NE 1.0 mph1.6 kmh 29.73 in1006.8 mb 0.00 in0.0 mm 0.00 in/hr0.0 mm/hr 0.14 in3.6 mm
08:10 PM 45.3°F7.4°C 42.5°F5.8°C 90% Calm Calm 1.0 mph1.6 kmh 29.73 in1006.8 mb 0.00 in0.0 mm 0.00 in/hr0.0 mm/hr 0.14 in3.6 mm
08:20 PM 45.3°F7.4°C 42.2°F5.7°C 89% 3.0 mph N4.8 kmh N 7.0 mph11.3 kmh 29.73 in1006.8 mb 0.00 in0.0 mm 0.00 in/hr0.0 mm/hr 0.14 in3.6 mm
08:30 PM 45.4°F7.4°C 42.3°F5.7°C 89% 2.0 mph N3.2 kmh N 6.0 mph9.7 kmh 29.74 in1007.1 mb 0.00 in0.0 mm 0.00 in/hr0.0 mm/hr 0.14 in3.6 mm
08:40 PM 45.3°F7.4°C 42.2°F5.7°C 89% 3.0 mph WNW4.8 kmh WNW 8.0 mph12.9 kmh 29.74 in1007.1 mb 0.00 in0.0 mm 0.00 in/hr0.0 mm/hr 0.14 in3.6 mm
08:50 PM 45.3°F7.4°C 42.2°F5.7°C 89% 2.0 mph NW3.2 kmh NW 6.0 mph9.7 kmh 29.75 in1007.5 mb 0.00 in0.0 mm 0.00 in/hr0.0 mm/hr 0.14 in3.6 mm
09:00 PM 45.2°F7.3°C 42.4°F5.8°C 90% 1.0 mph E1.6 kmh E 7.0 mph11.3 kmh 29.74 in1007.1 mb 0.00 in0.0 mm 0.00 in/hr0.0 mm/hr 0.14 in3.6 mm
09:10 PM 45.2°F7.3°C 42.2°F5.7°C 89% Calm Calm 1.0 mph1.6 kmh 29.74 in1007.1 mb 0.00 in0.0 mm 0.00 in/hr0.0 mm/hr 0.14 in3.6 mm
09:20 PM 45.3°F7.4°C 42.2°F5.7°C 89% Calm Calm 3.0 mph4.8 kmh 29.74 in1007.1 mb 0.00 in0.0 mm 0.00 in/hr0.0 mm/hr 0.14 in3.6 mm
09:30 PM 45.2°F7.3°C 42.7°F5.9°C 91% 2.0 mph NNE3.2 kmh NNE 3.0 mph4.8 kmh 29.74 in1007.1 mb 0.00 in0.0 mm 0.00 in/hr0.0 mm/hr 0.14 in3.6 mm
09:40 PM 45.1°F7.3°C 42.3°F5.7°C 90% 1.0 mph W1.6 kmh W 3.0 mph4.8 kmh 29.73 in1006.8 mb 0.00 in0.0 mm 0.00 in/hr0.0 mm/hr 0.14 in3.6 mm
09:50 PM 45.1°F7.3°C 42.3°F5.7°C 90% 1.0 mph NNE1.6 kmh NNE 3.0 mph4.8 kmh 29.74 in1007.1 mb 0.00 in0.0 mm 0.00 in/hr0.0 mm/hr 0.14 in3.6 mm
10:00 PM 45.2°F7.3°C 42.4°F5.8°C 90% 1.0 mph NE1.6 kmh NE 2.0 mph3.2 kmh 29.74 in1007.1 mb 0.00 in0.0 mm 0.00 in/hr0.0 mm/hr 0.14 in3.6 mm
10:10 PM 45.4°F7.4°C 42.6°F5.9°C 90% 2.0 mph NW3.2 kmh NW 6.0 mph9.7 kmh 29.74 in1007.1 mb 0.00 in0.0 mm 0.00 in/hr0.0 mm/hr 0.14 in3.6 mm
10:20 PM 45.4°F7.4°C 42.7°F5.9°C 90% 2.0 mph N3.2 kmh N 3.0 mph4.8 kmh 29.74 in1007.1 mb 0.00 in0.0 mm 0.00 in/hr0.0 mm/hr 0.14 in3.6 mm
10:30 PM 45.5°F7.5°C 42.7°F5.9°C 90% 2.0 mph NNW3.2 kmh NNW 9.0 mph14.5 kmh 29.74 in1007.1 mb 0.00 in0.0 mm 0.00 in/hr0.0 mm/hr 0.14 in3.6 mm
10:40 PM 45.5°F7.5°C 43.0°F6.1°C 91% Calm Calm 3.0 mph4.8 kmh 29.74 in1007.1 mb 0.00 in0.0 mm 0.00 in/hr0.0 mm/hr 0.14 in3.6 mm
10:50 PM 45.4°F7.4°C 42.9°F6.1°C 91% 2.0 mph N3.2 kmh N 5.0 mph8.0 kmh 29.74 in1007.1 mb 0.00 in0.0 mm 0.00 in/hr0.0 mm/hr 0.14 in3.6 mm
11:00 PM 45.4°F7.4°C 42.9°F6.1°C 91% 2.0 mph W3.2 kmh W 3.0 mph4.8 kmh 29.74 in1007.1 mb 0.00 in0.0 mm 0.00 in/hr0.0 mm/hr 0.14 in3.6 mm
11:10 PM 45.5°F7.5°C 42.7°F5.9°C 90% Calm Calm 3.0 mph4.8 kmh 29.75 in1007.5 mb 0.00 in0.0 mm 0.00 in/hr0.0 mm/hr 0.14 in3.6 mm
11:20 PM 45.3°F7.4°C 42.8°F6.0°C 91% 1.0 mph N1.6 kmh N 2.0 mph3.2 kmh 29.74 in1007.1 mb 0.00 in0.0 mm 0.00 in/hr0.0 mm/hr 0.14 in3.6 mm
11:30 PM 45.0°F7.2°C 42.8°F6.0°C 92% Calm Calm 1.0 mph1.6 kmh 29.74 in1007.1 mb 0.00 in0.0 mm 0.00 in/hr0.0 mm/hr 0.14 in3.6 mm
11:40 PM 45.0°F7.2°C 42.5°F5.8°C 91% 2.0 mph N3.2 kmh N 3.0 mph4.8 kmh 29.74 in1007.1 mb 0.00 in0.0 mm 0.00 in/hr0.0 mm/hr 0.14 in3.6 mm
11:50 PM 45.1°F7.3°C 42.3°F5.7°C 90% 2.0 mph NW3.2 kmh NW 7.0 mph11.3 kmh 29.74 in1007.1 mb 0.00 in0.0 mm 0.00 in/hr0.0 mm/hr 0.14 in3.6 mm